Addis Ababa, Ethiopia
Current Conditions -  °F | °C
As of 11:55 PM on Wednesday 26 Nov 2014 (Local Time) from KQRH Reporting Station
Broken Clouds Broken Clouds  
Wind Chill: 79°   Ceiling: 3600
Heat Index: 82°   Visibility: 6mi
Dew Point: 69°   Wind: 3mph
Humidity: 70%   Direction: 180°S
Pressure: 29.94"   Gusts: NA
Location:  9.02°N, 38.75°E
Report Text: KQRH 262055Z AUTO 18003KT 9999 BKN036 BKN044 26/21 A2994 RMK AO2 SLP135 T02630205 57006
Loading
Personal Weather Stations






























Interactive Weather Map New forecast layout! Learn more

10-Day Weather Forecast

Advertisements
Track Severe Weather on mobile